createdAt,value
2017-12-10T10:10:33.479Z,6.07
2017-12-10T10:13:01.176Z,7.03
2017-12-10T10:15:28.804Z,6.20
2017-12-10T10:17:56.551Z,6.70
2017-12-10T10:20:24.172Z,3.90
2017-12-10T10:22:51.847Z,4.90
2017-12-10T10:25:19.570Z,5.33
2017-12-10T10:27:47.196Z,6.70
2017-12-10T10:30:14.884Z,6.97
2017-12-10T10:32:42.563Z,6.50
2017-12-10T10:35:10.186Z,6.60
2017-12-10T10:37:37.819Z,6.17
2017-12-10T10:40:05.510Z,4.07
2017-12-10T10:42:33.128Z,4.20
2017-12-10T10:45:00.828Z,4.80
2017-12-10T10:47:28.582Z,4.73
2017-12-10T10:49:56.273Z,3.87
2017-12-10T10:52:23.892Z,5.90
2017-12-10T10:54:51.562Z,4.80
2017-12-10T10:57:19.172Z,3.50
2017-12-10T10:59:46.791Z,4.73
2017-12-10T11:02:14.477Z,5.43
2017-12-10T11:04:42.103Z,5.07
2017-12-10T11:07:09.792Z,6.70
2017-12-10T11:09:37.465Z,5.10
2017-12-10T11:12:05.088Z,7.93
2017-12-10T11:14:32.693Z,7.00
2017-12-10T11:17:00.428Z,8.23
2017-12-10T11:19:28.064Z,9.73
2017-12-10T11:21:55.747Z,4.83
2017-12-10T11:24:23.484Z,4.37
2017-12-10T11:26:51.101Z,5.57
2017-12-10T11:29:18.709Z,5.07
2017-12-10T11:31:46.400Z,3.63
2017-12-10T11:34:14.022Z,3.70
2017-12-10T11:36:41.671Z,4.60
2017-12-10T11:39:09.367Z,4.77
2017-12-10T11:41:37.015Z,4.40
2017-12-10T11:44:04.714Z,5.83
2017-12-10T11:46:32.517Z,4.50
2017-12-10T11:49:00.164Z,4.37
2017-12-10T11:51:27.843Z,5.20
2017-12-10T11:53:55.565Z,3.63
2017-12-10T11:56:23.184Z,4.23
2017-12-10T11:58:50.863Z,5.00
2017-12-10T12:01:18.572Z,5.20
2017-12-10T12:03:46.207Z,5.17
2017-12-10T12:06:13.836Z,6.40
2017-12-10T12:08:41.503Z,3.43
2017-12-10T12:11:09.116Z,5.17
2017-12-10T12:13:36.751Z,4.40
2017-12-10T12:16:04.427Z,5.40
2017-12-10T12:18:32.056Z,6.20
2017-12-10T12:20:59.671Z,6.90
2017-12-10T12:23:27.400Z,6.67
2017-12-10T12:25:55.091Z,6.90
2017-12-10T12:28:22.799Z,7.10
2017-12-10T12:30:50.518Z,6.97
2017-12-10T12:33:18.139Z,6.97
2017-12-10T12:35:45.760Z,4.33
2017-12-10T12:38:13.440Z,4.97
2017-12-10T12:40:41.063Z,6.60
2017-12-10T12:43:08.670Z,4.03
2017-12-10T12:45:36.339Z,5.30
2017-12-10T12:48:03.964Z,4.73
2017-12-10T12:50:31.593Z,14.47
2017-12-10T12:52:59.271Z,6.03
2017-12-10T12:55:26.888Z,6.87
2017-12-10T12:57:54.576Z,6.93
2017-12-10T13:00:22.262Z,5.67
2017-12-10T13:02:49.903Z,7.07
2017-12-10T13:05:17.535Z,6.97
2017-12-10T13:07:45.263Z,7.13
2017-12-10T13:10:12.942Z,6.77
2017-12-10T13:12:40.562Z,7.03
2017-12-10T13:15:08.313Z,7.87
2017-12-10T13:17:35.936Z,8.03
2017-12-10T13:20:03.572Z,6.80
2017-12-10T13:22:31.251Z,9.50
2017-12-10T13:24:58.871Z,6.50
2017-12-10T13:27:26.507Z,7.20
2017-12-10T13:29:54.196Z,6.53
2017-12-10T13:32:21.813Z,7.90
2017-12-10T13:34:49.426Z,9.67
2017-12-10T13:37:17.139Z,9.77
2017-12-10T13:39:44.776Z,6.70
2017-12-10T13:42:12.407Z,9.70
2017-12-10T13:44:40.095Z,11.03
2017-12-10T13:47:07.733Z,10.10
2017-12-10T13:49:35.367Z,11.17
2017-12-10T13:52:03.058Z,12.00
2017-12-10T13:54:30.739Z,12.90
2017-12-10T13:56:58.371Z,22.60
2017-12-10T13:59:26.045Z,13.73
2017-12-10T14:01:53.689Z,14.50
2017-12-10T14:04:21.391Z,12.30
2017-12-10T14:06:49.085Z,11.87
2017-12-10T14:09:16.715Z,10.73
2017-12-10T14:11:44.374Z,12.40
2017-12-10T14:14:12.048Z,14.60
2017-12-10T14:16:39.754Z,15.33
2017-12-10T14:19:07.362Z,11.80
2017-12-10T14:21:35.091Z,10.47
2017-12-10T14:24:02.790Z,14.70
2017-12-10T14:26:31.353Z,13.93
2017-12-10T14:28:59.042Z,16.27
2017-12-10T14:31:26.665Z,17.13
2017-12-10T14:33:54.359Z,13.27
2017-12-10T14:36:22.043Z,15.30
2017-12-10T14:38:49.749Z,15.60
2017-12-10T14:41:17.431Z,17.30
2017-12-10T14:43:45.121Z,27.97
2017-12-10T14:46:12.815Z,23.13
2017-12-10T14:48:40.446Z,20.20
2017-12-10T14:51:09.070Z,21.60
2017-12-10T14:53:36.753Z,22.67
2017-12-10T14:56:04.443Z,22.43
2017-12-10T14:58:32.179Z,18.63
2017-12-10T15:00:59.822Z,22.43
2017-12-10T15:03:27.560Z,19.87
2017-12-10T15:05:55.261Z,29.63
2017-12-10T15:08:22.887Z,27.97
2017-12-10T15:10:50.539Z,37.80
2017-12-10T15:13:18.293Z,27.60
2017-12-10T15:15:45.968Z,24.03
2017-12-10T15:18:13.688Z,27.00
2017-12-10T15:20:41.368Z,29.43
2017-12-10T15:23:09.003Z,30.50
2017-12-10T15:25:36.703Z,37.53
2017-12-10T15:28:04.447Z,39.50
2017-12-10T15:30:32.091Z,38.13
2017-12-10T15:32:59.719Z,64.37
2017-12-10T15:35:27.518Z,41.67
2017-12-10T15:37:55.144Z,33.93
2017-12-10T15:40:22.767Z,51.60
2017-12-10T15:42:50.443Z,44.83
2017-12-10T15:45:18.067Z,29.00
2017-12-10T15:47:45.726Z,40.80
2017-12-10T15:50:13.471Z,38.77
2017-12-10T15:52:41.099Z,33.13
2017-12-10T15:55:08.722Z,27.70
2017-12-10T15:57:36.431Z,24.00
2017-12-10T16:00:04.067Z,28.30
2017-12-10T16:02:31.791Z,41.87
2017-12-10T16:04:59.549Z,46.77
2017-12-10T16:07:27.287Z,55.03
2017-12-10T16:09:54.993Z,59.93
2017-12-10T16:12:22.670Z,62.23
2017-12-10T16:14:50.299Z,70.63
2017-12-10T16:17:17.928Z,63.73
2017-12-10T16:19:45.633Z,48.43
2017-12-10T16:22:13.251Z,47.90
2017-12-10T16:24:40.887Z,58.27
2017-12-10T16:27:08.563Z,59.90
2017-12-10T16:29:36.187Z,52.13
2017-12-10T16:32:03.818Z,50.83
2017-12-10T16:34:31.552Z,70.13
2017-12-10T16:36:59.187Z,75.40
2017-12-10T16:39:26.822Z,82.77
2017-12-10T16:41:54.547Z,80.47
2017-12-10T16:44:22.192Z,71.10
2017-12-10T16:46:49.967Z,70.20
2017-12-10T16:49:17.663Z,87.13
2017-12-10T16:51:45.298Z,68.70
2017-12-10T16:54:12.983Z,71.57
2017-12-10T16:56:40.665Z,76.40
2017-12-10T16:59:08.287Z,66.47
2017-12-10T17:01:36.073Z,53.93
2017-12-10T17:04:03.775Z,56.07
2017-12-10T17:06:31.403Z,52.90
2017-12-10T17:08:59.037Z,45.90
2017-12-10T17:11:26.758Z,51.93
2017-12-10T17:13:54.460Z,45.13
2017-12-10T17:16:22.284Z,67.50
2017-12-10T17:18:50.027Z,62.60
2017-12-10T17:21:17.658Z,58.10
2017-12-10T17:23:45.291Z,57.37
2017-12-10T17:26:13.067Z,55.83
2017-12-10T17:28:40.700Z,60.60
2017-12-10T17:31:08.382Z,70.97
2017-12-10T17:33:36.095Z,57.73
2017-12-10T17:36:03.791Z,48.30
2017-12-10T17:38:31.438Z,42.60
2017-12-10T17:40:59.202Z,38.43
2017-12-10T17:43:26.895Z,39.17
2017-12-10T17:45:54.527Z,34.03
2017-12-10T17:48:22.268Z,24.23
2017-12-10T17:50:49.960Z,24.70
2017-12-10T17:53:17.692Z,29.27
2017-12-10T17:55:45.483Z,31.47
2017-12-10T17:58:13.123Z,34.67
2017-12-10T18:00:40.955Z,36.83
2017-12-10T18:03:08.699Z,54.30
2017-12-10T18:05:36.322Z,42.27
2017-12-10T18:08:03.955Z,45.10
2017-12-10T18:10:31.655Z,54.37
2017-12-10T18:12:59.347Z,77.10
2017-12-10T18:15:27.047Z,58.47
2017-12-10T18:17:54.740Z,65.33
2017-12-10T18:20:22.380Z,51.00
2017-12-10T18:22:50.077Z,45.47
2017-12-10T18:25:17.818Z,48.60
2017-12-10T18:27:45.459Z,41.70
2017-12-10T18:30:13.092Z,33.50
2017-12-10T18:32:40.844Z,56.37
2017-12-10T18:35:08.475Z,52.20
2017-12-10T18:37:36.103Z,54.90
2017-12-10T18:40:03.851Z,51.07
2017-12-10T18:42:31.550Z,34.73
2017-12-10T18:44:59.211Z,58.83
2017-12-10T18:47:26.895Z,49.57
2017-12-10T18:49:54.506Z,58.33
2017-12-10T18:52:22.144Z,51.70
2017-12-10T18:54:49.854Z,39.20
2017-12-10T18:57:17.551Z,33.83
2017-12-10T18:59:45.173Z,29.77
2017-12-10T19:02:12.847Z,38.17
2017-12-10T19:04:40.475Z,35.73
2017-12-10T19:07:08.160Z,43.00
2017-12-10T19:09:35.956Z,41.63
2017-12-10T19:12:03.627Z,35.93
2017-12-10T19:14:31.272Z,42.17
2017-12-10T19:16:59.015Z,41.37
2017-12-10T19:19:26.671Z,29.20
2017-12-10T19:21:54.468Z,32.67
2017-12-10T19:24:22.151Z,27.27
2017-12-10T19:26:49.812Z,24.20
2017-12-10T19:29:17.521Z,29.07
2017-12-10T19:31:45.235Z,27.63
2017-12-10T19:34:12.952Z,29.07
2017-12-10T19:36:40.631Z,32.10
2017-12-10T19:39:08.371Z,35.63
2017-12-10T19:41:36.009Z,44.00
2017-12-10T19:44:03.659Z,53.77
2017-12-10T19:46:31.343Z,42.90
2017-12-10T19:48:58.996Z,41.70
2017-12-10T19:51:26.700Z,45.80
2017-12-10T19:53:54.450Z,44.40
2017-12-10T19:56:22.159Z,45.53
2017-12-10T19:58:49.852Z,47.10
2017-12-10T20:01:17.545Z,47.00
2017-12-10T20:03:45.222Z,44.03
2017-12-10T20:06:12.900Z,24.20
2017-12-10T20:08:40.592Z,25.07
2017-12-10T20:11:08.220Z,23.93
2017-12-10T20:13:35.839Z,24.20
2017-12-10T20:16:03.620Z,24.03
2017-12-10T20:18:31.309Z,28.90
2017-12-10T20:20:58.934Z,28.67
2017-12-10T20:23:26.620Z,29.47
2017-12-10T20:25:54.251Z,17.10
2017-12-10T20:28:21.936Z,18.00
2017-12-10T20:30:49.684Z,16.73
2017-12-10T20:33:17.311Z,16.90
2017-12-10T20:35:44.947Z,20.10
2017-12-10T20:38:12.634Z,24.13
2017-12-10T20:40:40.260Z,18.27
2017-12-10T20:43:07.896Z,21.70
2017-12-10T20:45:35.601Z,19.50
2017-12-10T20:48:03.295Z,18.50
2017-12-10T20:50:30.946Z,17.43
2017-12-10T20:52:58.643Z,17.87
2017-12-10T20:55:26.327Z,15.67
2017-12-10T20:57:54.019Z,15.20
2017-12-10T21:00:21.814Z,15.10
2017-12-10T21:02:49.540Z,13.97
2017-12-10T21:05:17.204Z,12.07
2017-12-10T21:07:44.916Z,12.40
2017-12-10T21:10:12.683Z,10.23
2017-12-10T21:12:40.411Z,13.73
2017-12-10T21:15:08.099Z,24.87
2017-12-10T21:17:35.731Z,24.17
2017-12-10T21:20:03.411Z,21.77
2017-12-10T21:22:31.100Z,22.13
2017-12-10T21:24:58.762Z,22.57
2017-12-10T21:27:26.414Z,33.47
2017-12-10T21:29:54.118Z,23.87
2017-12-10T21:32:21.765Z,31.90
2017-12-10T21:34:49.480Z,40.13
2017-12-10T21:37:17.240Z,34.43
2017-12-10T21:39:44.940Z,18.77
2017-12-10T21:42:12.567Z,19.00
2017-12-10T21:44:40.252Z,17.40
2017-12-10T21:47:07.886Z,14.93
2017-12-10T21:49:35.519Z,14.70
2017-12-10T21:52:03.198Z,12.60
2017-12-10T21:54:30.836Z,10.07
2017-12-10T21:56:58.463Z,10.87
2017-12-10T21:59:26.160Z,12.40
2017-12-10T22:01:53.791Z,12.20
2017-12-10T22:04:21.419Z,11.23
2017-12-10T22:06:49.091Z,17.63
2017-12-10T22:09:16.744Z,10.47
2017-12-10T22:11:44.440Z,11.07
2017-12-10T22:14:12.127Z,9.83
2017-12-10T22:16:39.755Z,10.77
2017-12-10T22:19:07.391Z,10.33
2017-12-10T22:21:35.060Z,9.70
2017-12-10T22:24:02.738Z,9.47
2017-12-10T22:26:30.371Z,10.30
2017-12-10T22:28:58.140Z,8.17
2017-12-10T22:31:25.768Z,8.70
2017-12-10T22:33:53.388Z,6.67
2017-12-10T22:36:21.081Z,6.60
2017-12-10T22:38:48.817Z,5.77
2017-12-10T22:41:16.454Z,6.03
2017-12-10T22:43:44.142Z,4.87
2017-12-10T22:46:11.820Z,4.13
2017-12-10T22:48:39.422Z,5.73
2017-12-10T22:51:07.210Z,11.97
2017-12-10T22:53:34.833Z,9.27
2017-12-10T22:56:02.443Z,6.40
2017-12-10T22:58:30.111Z,6.20
2017-12-10T23:00:57.785Z,6.30
2017-12-10T23:03:25.448Z,5.37
2017-12-10T23:05:53.130Z,4.10
2017-12-10T23:08:20.738Z,4.30
2017-12-10T23:10:48.344Z,3.80
2017-12-10T23:13:16.007Z,3.63
2017-12-10T23:15:43.622Z,4.00
2017-12-10T23:18:11.295Z,3.23
2017-12-10T23:20:38.963Z,3.30
2017-12-10T23:23:06.625Z,3.07
2017-12-10T23:25:34.267Z,2.57
2017-12-10T23:28:01.924Z,2.70
2017-12-10T23:30:29.672Z,3.27
2017-12-10T23:32:57.299Z,3.10
2017-12-10T23:35:25.026Z,3.47
2017-12-10T23:37:52.646Z,12.00
2017-12-10T23:40:20.310Z,3.23
2017-12-10T23:42:48.044Z,5.33
2017-12-10T23:45:15.668Z,5.20
2017-12-10T23:47:43.282Z,9.57
2017-12-10T23:50:10.955Z,4.73
2017-12-10T23:52:38.633Z,15.53
2017-12-10T23:55:06.239Z,5.17
2017-12-10T23:57:33.956Z,3.67
